sensor_id;sensor_type;location;lat;lon;timestamp;temperature;humidity
38237;DHT22;50101;49.438;11.098;2024-03-25T00:02:13;18.70;57.60
38237;DHT22;50101;49.438;11.098;2024-03-25T00:04:40;18.70;58.20
38237;DHT22;50101;49.438;11.098;2024-03-25T00:07:06;18.70;57.50
38237;DHT22;50101;49.438;11.098;2024-03-25T00:09:31;18.70;57.50
38237;DHT22;50101;49.438;11.098;2024-03-25T00:11:57;18.70;57.60
38237;DHT22;50101;49.438;11.098;2024-03-25T00:14:23;18.70;57.60
38237;DHT22;50101;49.438;11.098;2024-03-25T00:16:49;18.70;57.50
38237;DHT22;50101;49.438;11.098;2024-03-25T00:19:15;18.70;57.50
38237;DHT22;50101;49.438;11.098;2024-03-25T00:21:42;18.70;57.50
38237;DHT22;50101;49.438;11.098;2024-03-25T00:24:08;18.60;56.90
38237;DHT22;50101;49.438;11.098;2024-03-25T00:26:34;18.70;57.50
38237;DHT22;50101;49.438;11.098;2024-03-25T00:28:59;18.70;57.50
38237;DHT22;50101;49.438;11.098;2024-03-25T00:31:28;18.70;57.50
38237;DHT22;50101;49.438;11.098;2024-03-25T00:33:54;18.70;57.40
38237;DHT22;50101;49.438;11.098;2024-03-25T00:36:20;18.70;57.40
38237;DHT22;50101;49.438;11.098;2024-03-25T00:38:46;18.70;57.40
38237;DHT22;50101;49.438;11.098;2024-03-25T00:41:11;18.70;57.40
38237;DHT22;50101;49.438;11.098;2024-03-25T00:43:37;18.60;57.30
38237;DHT22;50101;49.438;11.098;2024-03-25T00:46:03;18.60;57.30
38237;DHT22;50101;49.438;11.098;2024-03-25T00:48:29;18.60;57.30
38237;DHT22;50101;49.438;11.098;2024-03-25T00:50:55;18.60;57.30
38237;DHT22;50101;49.438;11.098;2024-03-25T00:53:21;18.60;57.30
38237;DHT22;50101;49.438;11.098;2024-03-25T00:55:47;18.60;57.20
38237;DHT22;50101;49.438;11.098;2024-03-25T00:58:13;18.60;57.20
38237;DHT22;50101;49.438;11.098;2024-03-25T01:00:40;18.60;57.20
38237;DHT22;50101;49.438;11.098;2024-03-25T01:03:06;18.60;57.90
38237;DHT22;50101;49.438;11.098;2024-03-25T01:05:32;18.60;57.20
38237;DHT22;50101;49.438;11.098;2024-03-25T01:07:57;18.60;57.20
38237;DHT22;50101;49.438;11.098;2024-03-25T01:10:23;18.60;57.30
38237;DHT22;50101;49.438;11.098;2024-03-25T01:12:49;18.60;57.20
38237;DHT22;50101;49.438;11.098;2024-03-25T01:15:15;18.60;57.20
38237;DHT22;50101;49.438;11.098;2024-03-25T01:17:40;18.60;57.20
38237;DHT22;50101;49.438;11.098;2024-03-25T01:20:06;18.60;57.20
38237;DHT22;50101;49.438;11.098;2024-03-25T01:22:34;18.50;57.10
38237;DHT22;50101;49.438;11.098;2024-03-25T01:25:00;18.50;57.10
38237;DHT22;50101;49.438;11.098;2024-03-25T01:27:26;18.60;57.20
38237;DHT22;50101;49.438;11.098;2024-03-25T01:29:52;18.60;57.20
38237;DHT22;50101;49.438;11.098;2024-03-25T01:32:18;18.60;57.20
38237;DHT22;50101;49.438;11.098;2024-03-25T01:34:43;18.50;56.60
38237;DHT22;50101;49.438;11.098;2024-03-25T01:37:09;18.60;57.20
38237;DHT22;50101;49.438;11.098;2024-03-25T01:39:35;18.60;57.10
38237;DHT22;50101;49.438;11.098;2024-03-25T01:42:03;18.60;57.10
38237;DHT22;50101;49.438;11.098;2024-03-25T01:44:28;18.60;57.10
38237;DHT22;50101;49.438;11.098;2024-03-25T01:46:54;18.50;57.00
38237;DHT22;50101;49.438;11.098;2024-03-25T01:49:21;18.50;57.00
38237;DHT22;50101;49.438;11.098;2024-03-25T01:51:47;18.50;57.00
38237;DHT22;50101;49.438;11.098;2024-03-25T01:54:14;18.50;57.00
38237;DHT22;50101;49.438;11.098;2024-03-25T01:56:43;18.50;57.00
38237;DHT22;50101;49.438;11.098;2024-03-25T01:59:10;18.50;57.00
38237;DHT22;50101;49.438;11.098;2024-03-25T02:01:36;18.50;57.00
38237;DHT22;50101;49.438;11.098;2024-03-25T02:04:02;18.50;57.00
38237;DHT22;50101;49.438;11.098;2024-03-25T02:06:28;18.50;57.00
38237;DHT22;50101;49.438;11.098;2024-03-25T02:08:57;18.50;57.00
38237;DHT22;50101;49.438;11.098;2024-03-25T02:11:24;18.50;57.00
38237;DHT22;50101;49.438;11.098;2024-03-25T02:13:53;18.50;57.00
38237;DHT22;50101;49.438;11.098;2024-03-25T02:16:19;18.50;57.00
38237;DHT22;50101;49.438;11.098;2024-03-25T02:18:44;18.50;57.00
38237;DHT22;50101;49.438;11.098;2024-03-25T02:21:10;18.50;57.00
38237;DHT22;50101;49.438;11.098;2024-03-25T02:23:39;18.50;57.00
38237;DHT22;50101;49.438;11.098;2024-03-25T02:26:05;18.50;57.00
38237;DHT22;50101;49.438;11.098;2024-03-25T02:28:31;18.50;57.00
38237;DHT22;50101;49.438;11.098;2024-03-25T02:30:57;18.50;57.00
38237;DHT22;50101;49.438;11.098;2024-03-25T02:33:22;18.50;57.00
38237;DHT22;50101;49.438;11.098;2024-03-25T02:35:48;18.50;57.00
38237;DHT22;50101;49.438;11.098;2024-03-25T02:38:14;18.50;57.10
38237;DHT22;50101;49.438;11.098;2024-03-25T02:40:43;18.50;56.60
38237;DHT22;50101;49.438;11.098;2024-03-25T02:43:10;18.50;57.00
38237;DHT22;50101;49.438;11.098;2024-03-25T02:45:36;18.50;56.60
38237;DHT22;50101;49.438;11.098;2024-03-25T02:48:02;18.50;57.00
38237;DHT22;50101;49.438;11.098;2024-03-25T02:50:28;18.50;57.10
38237;DHT22;50101;49.438;11.098;2024-03-25T02:52:54;18.40;57.00
38237;DHT22;50101;49.438;11.098;2024-03-25T02:55:20;18.50;57.10
38237;DHT22;50101;49.438;11.098;2024-03-25T02:57:45;18.40;57.00
38237;DHT22;50101;49.438;11.098;2024-03-25T03:00:12;18.40;57.00
38237;DHT22;50101;49.438;11.098;2024-03-25T03:02:39;18.50;57.10
38237;DHT22;50101;49.438;11.098;2024-03-25T03:05:05;18.50;57.20
38237;DHT22;50101;49.438;11.098;2024-03-25T03:07:31;18.40;57.10
38237;DHT22;50101;49.438;11.098;2024-03-25T03:09:57;18.40;57.10
38237;DHT22;50101;49.438;11.098;2024-03-25T03:12:22;18.40;57.10
38237;DHT22;50101;49.438;11.098;2024-03-25T03:14:48;18.40;57.10
38237;DHT22;50101;49.438;11.098;2024-03-25T03:17:14;18.40;57.10
38237;DHT22;50101;49.438;11.098;2024-03-25T03:19:40;18.40;57.10
38237;DHT22;50101;49.438;11.098;2024-03-25T03:22:05;18.40;57.00
38237;DHT22;50101;49.438;11.098;2024-03-25T03:24:31;18.40;57.00
38237;DHT22;50101;49.438;11.098;2024-03-25T03:26:58;18.40;57.00
38237;DHT22;50101;49.438;11.098;2024-03-25T03:29:23;18.40;57.00
38237;DHT22;50101;49.438;11.098;2024-03-25T03:31:49;18.40;57.00
38237;DHT22;50101;49.438;11.098;2024-03-25T03:34:15;18.40;57.00
38237;DHT22;50101;49.438;11.098;2024-03-25T03:36:41;18.40;57.00
38237;DHT22;50101;49.438;11.098;2024-03-25T03:39:07;18.40;57.00
38237;DHT22;50101;49.438;11.098;2024-03-25T03:41:36;18.40;57.00
38237;DHT22;50101;49.438;11.098;2024-03-25T03:44:02;18.40;57.00
38237;DHT22;50101;49.438;11.098;2024-03-25T03:46:28;18.40;56.50
38237;DHT22;50101;49.438;11.098;2024-03-25T03:48:54;18.40;57.00
38237;DHT22;50101;49.438;11.098;2024-03-25T03:51:20;18.40;57.00
38237;DHT22;50101;49.438;11.098;2024-03-25T03:53:45;18.40;57.00
38237;DHT22;50101;49.438;11.098;2024-03-25T03:56:11;18.40;57.00
38237;DHT22;50101;49.438;11.098;2024-03-25T03:58:37;18.40;56.90
38237;DHT22;50101;49.438;11.098;2024-03-25T04:01:03;18.40;57.00
38237;DHT22;50101;49.438;11.098;2024-03-25T04:03:30;18.30;56.90
38237;DHT22;50101;49.438;11.098;2024-03-25T04:05:56;18.40;56.90
38237;DHT22;50101;49.438;11.098;2024-03-25T04:08:21;18.40;57.00
38237;DHT22;50101;49.438;11.098;2024-03-25T04:10:47;18.40;57.00
38237;DHT22;50101;49.438;11.098;2024-03-25T04:13:13;18.30;56.90
38237;DHT22;50101;49.438;11.098;2024-03-25T04:15:43;18.30;56.90
38237;DHT22;50101;49.438;11.098;2024-03-25T04:18:09;18.30;57.00
38237;DHT22;50101;49.438;11.098;2024-03-25T04:20:39;18.30;57.00
38237;DHT22;50101;49.438;11.098;2024-03-25T04:23:05;18.30;56.90
38237;DHT22;50101;49.438;11.098;2024-03-25T04:25:33;18.30;56.30
38237;DHT22;50101;49.438;11.098;2024-03-25T04:27:59;18.30;56.90
38237;DHT22;50101;49.438;11.098;2024-03-25T04:30:25;18.30;56.90
38237;DHT22;50101;49.438;11.098;2024-03-25T04:32:52;18.30;56.90
38237;DHT22;50101;49.438;11.098;2024-03-25T04:35:17;18.30;56.90
38237;DHT22;50101;49.438;11.098;2024-03-25T04:37:43;18.30;56.90
38237;DHT22;50101;49.438;11.098;2024-03-25T04:40:10;18.30;56.90
38237;DHT22;50101;49.438;11.098;2024-03-25T04:42:36;18.30;57.00
38237;DHT22;50101;49.438;11.098;2024-03-25T04:45:02;18.30;56.50
38237;DHT22;50101;49.438;11.098;2024-03-25T04:47:27;18.30;57.10
38237;DHT22;50101;49.438;11.098;2024-03-25T04:49:53;18.30;57.10
38237;DHT22;50101;49.438;11.098;2024-03-25T04:52:19;18.30;57.00
38237;DHT22;50101;49.438;11.098;2024-03-25T04:54:49;18.30;57.00
38237;DHT22;50101;49.438;11.098;2024-03-25T04:57:15;18.30;57.00
38237;DHT22;50101;49.438;11.098;2024-03-25T04:59:40;18.30;57.00
38237;DHT22;50101;49.438;11.098;2024-03-25T05:02:06;18.30;57.00
38237;DHT22;50101;49.438;11.098;2024-03-25T05:04:32;18.30;57.10
38237;DHT22;50101;49.438;11.098;2024-03-25T05:06:58;18.20;57.10
38237;DHT22;50101;49.438;11.098;2024-03-25T05:09:24;18.30;57.10
38237;DHT22;50101;49.438;11.098;2024-03-25T05:11:50;18.30;57.70
38237;DHT22;50101;49.438;11.098;2024-03-25T05:14:16;18.30;57.10
38237;DHT22;50101;49.438;11.098;2024-03-25T05:16:41;18.20;57.10
38237;DHT22;50101;49.438;11.098;2024-03-25T05:19:07;18.30;57.10
38237;DHT22;50101;49.438;11.098;2024-03-25T05:21:33;18.20;57.00
38237;DHT22;50101;49.438;11.098;2024-03-25T05:23:59;18.30;56.60
38237;DHT22;50101;49.438;11.098;2024-03-25T05:26:25;18.30;57.10
38237;DHT22;50101;49.438;11.098;2024-03-25T05:28:56;18.30;57.10
38237;DHT22;50101;49.438;11.098;2024-03-25T05:31:23;18.30;57.10
38237;DHT22;50101;49.438;11.098;2024-03-25T05:33:49;18.30;57.10
38237;DHT22;50101;49.438;11.098;2024-03-25T05:36:15;18.30;57.10
38237;DHT22;50101;49.438;11.098;2024-03-25T05:38:41;18.30;57.10
38237;DHT22;50101;49.438;11.098;2024-03-25T05:41:09;18.30;56.60
38237;DHT22;50101;49.438;11.098;2024-03-25T05:43:34;18.30;57.00
38237;DHT22;50101;49.438;11.098;2024-03-25T05:46:00;18.40;57.10
38237;DHT22;50101;49.438;11.098;2024-03-25T05:48:27;18.40;57.10
38237;DHT22;50101;49.438;11.098;2024-03-25T05:51:00;18.40;57.10
38237;DHT22;50101;49.438;11.098;2024-03-25T05:53:29;18.40;57.10
38237;DHT22;50101;49.438;11.098;2024-03-25T05:55:55;18.30;56.50
38237;DHT22;50101;49.438;11.098;2024-03-25T05:58:22;18.40;57.10
38237;DHT22;50101;49.438;11.098;2024-03-25T06:00:48;18.40;57.10
38237;DHT22;50101;49.438;11.098;2024-03-25T06:03:15;18.40;57.10
38237;DHT22;50101;49.438;11.098;2024-03-25T06:05:41;18.50;57.10
38237;DHT22;50101;49.438;11.098;2024-03-25T06:08:07;18.50;57.00
38237;DHT22;50101;49.438;11.098;2024-03-25T06:10:37;18.50;57.00
38237;DHT22;50101;49.438;11.098;2024-03-25T06:13:03;18.50;57.00
38237;DHT22;50101;49.438;11.098;2024-03-25T06:15:29;18.50;57.10
38237;DHT22;50101;49.438;11.098;2024-03-25T06:17:55;18.50;57.00
38237;DHT22;50101;49.438;11.098;2024-03-25T06:20:20;18.50;57.00
38237;DHT22;50101;49.438;11.098;2024-03-25T06:22:46;18.60;57.00
38237;DHT22;50101;49.438;11.098;2024-03-25T06:25:12;18.60;57.10
38237;DHT22;50101;49.438;11.098;2024-03-25T06:27:38;18.70;57.00
38237;DHT22;50101;49.438;11.098;2024-03-25T06:30:04;18.60;56.90
38237;DHT22;50101;49.438;11.098;2024-03-25T06:32:48;18.70;57.00
38237;DHT22;50101;49.438;11.098;2024-03-25T06:35:33;18.70;56.90
38237;DHT22;50101;49.438;11.098;2024-03-25T06:37:59;18.80;56.80
38237;DHT22;50101;49.438;11.098;2024-03-25T06:40:24;18.90;56.90
38237;DHT22;50101;49.438;11.098;2024-03-25T06:42:50;19.00;56.90
38237;DHT22;50101;49.438;11.098;2024-03-25T06:45:16;19.00;57.00
38237;DHT22;50101;49.438;11.098;2024-03-25T06:47:43;19.00;57.00
38237;DHT22;50101;49.438;11.098;2024-03-25T06:50:09;19.00;57.10
38237;DHT22;50101;49.438;11.098;2024-03-25T06:52:35;19.10;57.10
38237;DHT22;50101;49.438;11.098;2024-03-25T06:55:01;19.20;57.00
38237;DHT22;50101;49.438;11.098;2024-03-25T06:57:28;19.20;57.00
38237;DHT22;50101;49.438;11.098;2024-03-25T06:59:53;19.20;57.00
38237;DHT22;50101;49.438;11.098;2024-03-25T07:02:19;19.20;57.00
38237;DHT22;50101;49.438;11.098;2024-03-25T07:04:45;19.30;56.60
38237;DHT22;50101;49.438;11.098;2024-03-25T07:07:11;19.30;57.00
38237;DHT22;50101;49.438;11.098;2024-03-25T07:09:36;19.30;57.10
38237;DHT22;50101;49.438;11.098;2024-03-25T07:12:02;19.30;57.10
38237;DHT22;50101;49.438;11.098;2024-03-25T07:14:28;19.30;57.20
38237;DHT22;50101;49.438;11.098;2024-03-25T07:16:54;19.40;57.30
38237;DHT22;50101;49.438;11.098;2024-03-25T07:19:19;19.40;57.90
38237;DHT22;50101;49.438;11.098;2024-03-25T07:21:45;19.40;57.40
38237;DHT22;50101;49.438;11.098;2024-03-25T07:24:11;19.50;56.90
38237;DHT22;50101;49.438;11.098;2024-03-25T07:26:37;19.50;57.40
38237;DHT22;50101;49.438;11.098;2024-03-25T07:29:02;19.50;57.70
38237;DHT22;50101;49.438;11.098;2024-03-25T07:31:28;19.50;57.30
38237;DHT22;50101;49.438;11.098;2024-03-25T07:33:54;19.50;56.90
38237;DHT22;50101;49.438;11.098;2024-03-25T07:36:20;19.50;57.30
38237;DHT22;50101;49.438;11.098;2024-03-25T07:38:45;19.50;57.30
38237;DHT22;50101;49.438;11.098;2024-03-25T07:41:11;19.50;57.20
38237;DHT22;50101;49.438;11.098;2024-03-25T07:43:37;19.50;57.20
38237;DHT22;50101;49.438;11.098;2024-03-25T07:46:03;19.50;57.20
38237;DHT22;50101;49.438;11.098;2024-03-25T07:48:30;19.50;57.30
38237;DHT22;50101;49.438;11.098;2024-03-25T07:50:56;19.50;57.20
38237;DHT22;50101;49.438;11.098;2024-03-25T07:53:22;19.60;57.10
38237;DHT22;50101;49.438;11.098;2024-03-25T07:55:47;19.60;56.30
38237;DHT22;50101;49.438;11.098;2024-03-25T07:58:13;19.60;56.90
38237;DHT22;50101;49.438;11.098;2024-03-25T08:00:39;19.60;56.90
38237;DHT22;50101;49.438;11.098;2024-03-25T08:03:04;19.60;56.80
38237;DHT22;50101;49.438;11.098;2024-03-25T08:05:31;19.70;56.60
38237;DHT22;50101;49.438;11.098;2024-03-25T08:07:56;19.70;56.50
38237;DHT22;50101;49.438;11.098;2024-03-25T08:10:22;19.70;56.50
38237;DHT22;50101;49.438;11.098;2024-03-25T08:12:48;19.70;56.30
38237;DHT22;50101;49.438;11.098;2024-03-25T08:15:14;19.80;56.40
38237;DHT22;50101;49.438;11.098;2024-03-25T08:17:40;19.80;56.50
38237;DHT22;50101;49.438;11.098;2024-03-25T08:20:06;19.80;56.30
38237;DHT22;50101;49.438;11.098;2024-03-25T08:22:32;19.80;56.40
38237;DHT22;50101;49.438;11.098;2024-03-25T08:24:58;19.80;56.40
38237;DHT22;50101;49.438;11.098;2024-03-25T08:27:24;19.80;56.50
38237;DHT22;50101;49.438;11.098;2024-03-25T08:29:50;19.70;56.30
38237;DHT22;50101;49.438;11.098;2024-03-25T08:32:19;19.80;56.20
38237;DHT22;50101;49.438;11.098;2024-03-25T08:34:45;19.80;55.50
38237;DHT22;50101;49.438;11.098;2024-03-25T08:37:11;19.80;56.10
38237;DHT22;50101;49.438;11.098;2024-03-25T08:39:37;19.80;55.90
38237;DHT22;50101;49.438;11.098;2024-03-25T08:42:02;19.80;55.90
38237;DHT22;50101;49.438;11.098;2024-03-25T08:44:28;19.90;55.80
38237;DHT22;50101;49.438;11.098;2024-03-25T08:46:54;19.80;55.70
38237;DHT22;50101;49.438;11.098;2024-03-25T08:49:20;19.80;55.30
38237;DHT22;50101;49.438;11.098;2024-03-25T08:51:46;19.70;55.10
38237;DHT22;50101;49.438;11.098;2024-03-25T08:54:12;19.70;55.10
38237;DHT22;50101;49.438;11.098;2024-03-25T08:56:38;19.70;54.90
38237;DHT22;50101;49.438;11.098;2024-03-25T08:59:04;19.70;55.20
38237;DHT22;50101;49.438;11.098;2024-03-25T09:01:31;19.80;55.20
38237;DHT22;50101;49.438;11.098;2024-03-25T09:03:57;19.90;55.60
38237;DHT22;50101;49.438;11.098;2024-03-25T09:06:23;19.80;55.20
38237;DHT22;50101;49.438;11.098;2024-03-25T09:08:48;19.80;54.80
38237;DHT22;50101;49.438;11.098;2024-03-25T09:11:33;19.80;54.90
38237;DHT22;50101;49.438;11.098;2024-03-25T09:13:59;19.90;55.20
38237;DHT22;50101;49.438;11.098;2024-03-25T09:16:24;19.90;54.70
38237;DHT22;50101;49.438;11.098;2024-03-25T09:18:50;19.90;54.80
38237;DHT22;50101;49.438;11.098;2024-03-25T09:21:16;19.80;54.90
38237;DHT22;50101;49.438;11.098;2024-03-25T09:23:42;19.90;55.20
38237;DHT22;50101;49.438;11.098;2024-03-25T09:26:07;19.90;54.60
38237;DHT22;50101;49.438;11.098;2024-03-25T09:28:33;19.90;55.00
38237;DHT22;50101;49.438;11.098;2024-03-25T09:30:59;19.80;54.60
38237;DHT22;50101;49.438;11.098;2024-03-25T09:33:25;19.80;54.10
38237;DHT22;50101;49.438;11.098;2024-03-25T09:35:51;19.80;54.30
38237;DHT22;50101;49.438;11.098;2024-03-25T09:38:16;19.70;52.90
38237;DHT22;50101;49.438;11.098;2024-03-25T09:40:42;19.70;52.80
38237;DHT22;50101;49.438;11.098;2024-03-25T09:43:25;19.60;52.90
38237;DHT22;50101;49.438;11.098;2024-03-25T09:45:54;19.70;52.50
38237;DHT22;50101;49.438;11.098;2024-03-25T09:48:21;19.70;52.90
38237;DHT22;50101;49.438;11.098;2024-03-25T09:50:49;19.80;52.90
38237;DHT22;50101;49.438;11.098;2024-03-25T09:53:15;19.90;53.10
38237;DHT22;50101;49.438;11.098;2024-03-25T09:55:42;19.90;53.10
38237;DHT22;50101;49.438;11.098;2024-03-25T09:58:08;20.00;53.30
38237;DHT22;50101;49.438;11.098;2024-03-25T10:00:34;20.00;53.40
38237;DHT22;50101;49.438;11.098;2024-03-25T10:03:00;20.00;53.40
38237;DHT22;50101;49.438;11.098;2024-03-25T10:05:25;20.00;53.50
38237;DHT22;50101;49.438;11.098;2024-03-25T10:07:51;20.00;53.60
38237;DHT22;50101;49.438;11.098;2024-03-25T10:10:20;20.00;53.60
38237;DHT22;50101;49.438;11.098;2024-03-25T10:12:46;20.00;53.60
38237;DHT22;50101;49.438;11.098;2024-03-25T10:15:16;20.00;53.70
38237;DHT22;50101;49.438;11.098;2024-03-25T10:17:42;20.00;53.90
38237;DHT22;50101;49.438;11.098;2024-03-25T10:20:13;20.00;54.00
38237;DHT22;50101;49.438;11.098;2024-03-25T10:22:46;20.00;54.00
38237;DHT22;50101;49.438;11.098;2024-03-25T10:25:26;20.00;53.90
38237;DHT22;50101;49.438;11.098;2024-03-25T10:28:00;20.10;54.10
38237;DHT22;50101;49.438;11.098;2024-03-25T10:30:27;20.10;54.10
38237;DHT22;50101;49.438;11.098;2024-03-25T10:33:03;20.10;54.10
38237;DHT22;50101;49.438;11.098;2024-03-25T10:35:31;20.10;53.90
38237;DHT22;50101;49.438;11.098;2024-03-25T10:40:30;19.90;53.30
38237;DHT22;50101;49.438;11.098;2024-03-25T10:43:05;19.70;51.70
38237;DHT22;50101;49.438;11.098;2024-03-25T10:45:47;19.70;51.00
38237;DHT22;50101;49.438;11.098;2024-03-25T10:50:47;19.70;51.70
38237;DHT22;50101;49.438;11.098;2024-03-25T10:53:16;19.80;52.00
38237;DHT22;50101;49.438;11.098;2024-03-25T10:55:45;19.80;52.00
38237;DHT22;50101;49.438;11.098;2024-03-25T10:58:15;19.80;52.20
38237;DHT22;50101;49.438;11.098;2024-03-25T11:00:43;19.80;52.30
38237;DHT22;50101;49.438;11.098;2024-03-25T11:03:10;19.80;52.10
38237;DHT22;50101;49.438;11.098;2024-03-25T11:05:36;19.80;52.30
38237;DHT22;50101;49.438;11.098;2024-03-25T11:08:12;19.90;52.40
38237;DHT22;50101;49.438;11.098;2024-03-25T11:10:43;19.80;52.30
38237;DHT22;50101;49.438;11.098;2024-03-25T11:13:13;19.90;52.50
38237;DHT22;50101;49.438;11.098;2024-03-25T11:15:47;19.90;52.60
38237;DHT22;50101;49.438;11.098;2024-03-25T11:18:14;19.80;52.50
38237;DHT22;50101;49.438;11.098;2024-03-25T11:20:40;19.90;52.70
38237;DHT22;50101;49.438;11.098;2024-03-25T11:23:13;19.90;52.70
38237;DHT22;50101;49.438;11.098;2024-03-25T11:25:40;19.90;52.70
38237;DHT22;50101;49.438;11.098;2024-03-25T11:28:07;19.80;52.50
38237;DHT22;50101;49.438;11.098;2024-03-25T11:30:34;19.90;52.60
38237;DHT22;50101;49.438;11.098;2024-03-25T11:33:02;19.90;52.70
38237;DHT22;50101;49.438;11.098;2024-03-25T11:35:28;19.90;52.50
38237;DHT22;50101;49.438;11.098;2024-03-25T11:37:54;19.90;52.60
38237;DHT22;50101;49.438;11.098;2024-03-25T11:40:20;19.90;52.50
38237;DHT22;50101;49.438;11.098;2024-03-25T11:42:46;19.80;52.40
38237;DHT22;50101;49.438;11.098;2024-03-25T11:45:16;19.80;52.40
38237;DHT22;50101;49.438;11.098;2024-03-25T11:47:44;19.80;52.10
38237;DHT22;50101;49.438;11.098;2024-03-25T11:50:13;19.80;52.30
38237;DHT22;50101;49.438;11.098;2024-03-25T11:52:40;19.80;52.30
38237;DHT22;50101;49.438;11.098;2024-03-25T11:55:06;19.80;52.40
38237;DHT22;50101;49.438;11.098;2024-03-25T11:57:35;19.80;52.50
38237;DHT22;50101;49.438;11.098;2024-03-25T12:00:02;19.90;52.70
38237;DHT22;50101;49.438;11.098;2024-03-25T12:02:31;19.80;52.60
38237;DHT22;50101;49.438;11.098;2024-03-25T12:04:57;19.90;52.90
38237;DHT22;50101;49.438;11.098;2024-03-25T12:07:23;19.90;53.00
38237;DHT22;50101;49.438;11.098;2024-03-25T12:09:48;19.90;53.00
38237;DHT22;50101;49.438;11.098;2024-03-25T12:12:33;19.90;53.10
38237;DHT22;50101;49.438;11.098;2024-03-25T12:15:00;19.90;53.20
38237;DHT22;50101;49.438;11.098;2024-03-25T12:17:29;19.90;53.50
38237;DHT22;50101;49.438;11.098;2024-03-25T12:19:59;19.90;53.50
38237;DHT22;50101;49.438;11.098;2024-03-25T12:22:26;19.90;53.50
38237;DHT22;50101;49.438;11.098;2024-03-25T12:24:52;19.90;53.50
38237;DHT22;50101;49.438;11.098;2024-03-25T12:27:17;19.90;53.50
38237;DHT22;50101;49.438;11.098;2024-03-25T12:29:43;19.90;53.50
38237;DHT22;50101;49.438;11.098;2024-03-25T12:32:12;19.90;53.50
38237;DHT22;50101;49.438;11.098;2024-03-25T12:34:38;19.90;53.00
38237;DHT22;50101;49.438;11.098;2024-03-25T12:37:04;19.90;53.30
38237;DHT22;50101;49.438;11.098;2024-03-25T12:39:30;19.90;53.40
38237;DHT22;50101;49.438;11.098;2024-03-25T12:41:56;19.90;53.30
38237;DHT22;50101;49.438;11.098;2024-03-25T12:44:22;19.90;53.40
38237;DHT22;50101;49.438;11.098;2024-03-25T12:46:47;19.90;53.30
38237;DHT22;50101;49.438;11.098;2024-03-25T12:49:13;19.90;53.40
38237;DHT22;50101;49.438;11.098;2024-03-25T12:51:39;19.90;53.50
38237;DHT22;50101;49.438;11.098;2024-03-25T12:54:05;19.90;53.50
38237;DHT22;50101;49.438;11.098;2024-03-25T12:56:30;19.90;53.50
38237;DHT22;50101;49.438;11.098;2024-03-25T12:58:56;20.00;53.60
38237;DHT22;50101;49.438;11.098;2024-03-25T13:01:22;20.00;53.70
38237;DHT22;50101;49.438;11.098;2024-03-25T13:03:48;20.00;53.80
38237;DHT22;50101;49.438;11.098;2024-03-25T13:06:13;20.00;53.90
38237;DHT22;50101;49.438;11.098;2024-03-25T13:08:39;20.00;54.00
38237;DHT22;50101;49.438;11.098;2024-03-25T13:11:05;20.00;54.00
38237;DHT22;50101;49.438;11.098;2024-03-25T13:13:31;20.00;54.10
38237;DHT22;50101;49.438;11.098;2024-03-25T13:15:56;20.00;54.20
38237;DHT22;50101;49.438;11.098;2024-03-25T13:18:22;20.10;54.30
38237;DHT22;50101;49.438;11.098;2024-03-25T13:20:48;20.10;54.40
38237;DHT22;50101;49.438;11.098;2024-03-25T13:23:14;20.10;54.30
38237;DHT22;50101;49.438;11.098;2024-03-25T13:25:39;20.10;54.40
38237;DHT22;50101;49.438;11.098;2024-03-25T13:28:05;20.10;54.40
38237;DHT22;50101;49.438;11.098;2024-03-25T13:30:32;20.10;54.30
38237;DHT22;50101;49.438;11.098;2024-03-25T13:32:58;20.10;54.30
38237;DHT22;50101;49.438;11.098;2024-03-25T13:35:23;20.20;54.30
38237;DHT22;50101;49.438;11.098;2024-03-25T13:37:49;20.20;54.30
38237;DHT22;50101;49.438;11.098;2024-03-25T13:40:15;20.10;54.00
38237;DHT22;50101;49.438;11.098;2024-03-25T13:42:41;20.20;54.20
38237;DHT22;50101;49.438;11.098;2024-03-25T13:45:07;20.30;54.10
38237;DHT22;50101;49.438;11.098;2024-03-25T13:47:32;20.20;53.80
38237;DHT22;50101;49.438;11.098;2024-03-25T13:50:05;20.20;53.80
38237;DHT22;50101;49.438;11.098;2024-03-25T13:52:34;20.30;53.80
38237;DHT22;50101;49.438;11.098;2024-03-25T13:55:01;20.30;53.90
38237;DHT22;50101;49.438;11.098;2024-03-25T13:57:27;20.30;53.80
38237;DHT22;50101;49.438;11.098;2024-03-25T13:59:53;20.30;53.30
38237;DHT22;50101;49.438;11.098;2024-03-25T14:02:19;20.30;53.80
38237;DHT22;50101;49.438;11.098;2024-03-25T14:04:45;20.30;53.80
38237;DHT22;50101;49.438;11.098;2024-03-25T14:07:11;20.30;53.80
38237;DHT22;50101;49.438;11.098;2024-03-25T14:09:37;20.30;53.30
38237;DHT22;50101;49.438;11.098;2024-03-25T14:12:03;20.30;53.80
38237;DHT22;50101;49.438;11.098;2024-03-25T14:14:31;20.30;53.30
38237;DHT22;50101;49.438;11.098;2024-03-25T14:16:57;20.30;53.30
38237;DHT22;50101;49.438;11.098;2024-03-25T14:19:23;20.30;53.90
38237;DHT22;50101;49.438;11.098;2024-03-25T14:21:50;20.30;53.80
38237;DHT22;50101;49.438;11.098;2024-03-25T14:24:16;20.30;53.60
38237;DHT22;50101;49.438;11.098;2024-03-25T14:26:42;20.30;53.50
38237;DHT22;50101;49.438;11.098;2024-03-25T14:29:08;20.30;54.00
38237;DHT22;50101;49.438;11.098;2024-03-25T14:31:33;20.30;54.10
38237;DHT22;50101;49.438;11.098;2024-03-25T14:33:59;20.40;53.90
38237;DHT22;50101;49.438;11.098;2024-03-25T14:36:25;20.40;54.50
38237;DHT22;50101;49.438;11.098;2024-03-25T14:38:51;20.40;54.40
38237;DHT22;50101;49.438;11.098;2024-03-25T14:41:21;20.40;54.50
38237;DHT22;50101;49.438;11.098;2024-03-25T14:43:47;20.50;54.10
38237;DHT22;50101;49.438;11.098;2024-03-25T14:46:16;20.50;54.60
38237;DHT22;50101;49.438;11.098;2024-03-25T14:48:42;20.50;54.10
38237;DHT22;50101;49.438;11.098;2024-03-25T14:51:08;20.50;54.10
38237;DHT22;50101;49.438;11.098;2024-03-25T14:53:34;20.60;54.20
38237;DHT22;50101;49.438;11.098;2024-03-25T14:56:00;20.50;54.60
38237;DHT22;50101;49.438;11.098;2024-03-25T14:58:26;20.60;54.10
38237;DHT22;50101;49.438;11.098;2024-03-25T15:00:52;20.60;54.10
38237;DHT22;50101;49.438;11.098;2024-03-25T15:03:18;20.60;54.60
38237;DHT22;50101;49.438;11.098;2024-03-25T15:05:44;20.60;54.10
38237;DHT22;50101;49.438;11.098;2024-03-25T15:08:10;20.60;54.60
38237;DHT22;50101;49.438;11.098;2024-03-25T15:10:36;20.60;54.10
38237;DHT22;50101;49.438;11.098;2024-03-25T15:13:01;20.60;54.60
38237;DHT22;50101;49.438;11.098;2024-03-25T15:15:28;20.70;54.10
38237;DHT22;50101;49.438;11.098;2024-03-25T15:17:56;20.60;54.60